Time;durP1;ratioP1;P1;durP2;ratioP2;P2;SDS_P1;SDS_P2;PMS_P1;PMS_P2;Temp;Humidity;BMP_temperature;BMP_pressure;BME280_temperature;BME280_humidity;BME280_pressure;Samples;Min_cycle;Max_cycle;Signal;HPM_P1;HPM_P2
2022/05/08 00:00:10;;;;;;;14.63;9.80;;;;;;;;;;5026212;28;20305;-70
2022/05/08 00:02:35;;;;;;;17.40;11.27;;;;;;;;;;5031436;28;20201;-70
2022/05/08 00:05:00;;;;;;;13.00;9.63;;;;;;;;;;5034086;28;20214;-69
2022/05/08 00:07:26;;;;;;;15.07;9.70;;;;;;;;;;5029105;28;20209;-68
2022/05/08 00:09:51;;;;;;;14.67;9.10;;;;;;;;;;5029945;28;20213;-69
2022/05/08 00:12:16;;;;;;;13.00;9.80;;;;;;;;;;5030775;28;20217;-71
2022/05/08 00:14:42;;;;;;;12.50;8.80;;;;;;;;;;5023948;28;20633;-69
2022/05/08 00:17:11;;;;;;;17.90;9.70;;;;;;;;;;5029628;28;20281;-71
2022/05/08 00:19:37;;;;;;;14.80;9.07;;;;;;;;;;5027952;28;20758;-71
2022/05/08 00:22:02;;;;;;;11.43;9.03;;;;;;;;;;5031407;28;20274;-72
2022/05/08 00:24:27;;;;;;;13.83;8.57;;;;;;;;;;5026309;28;20552;-71
2022/05/08 00:26:52;;;;;;;9.67;8.13;;;;;;;;;;5028501;28;20236;-72
2022/05/08 00:29:18;;;;;;;13.00;8.97;;;;;;;;;;5025985;28;20182;-71
2022/05/08 00:31:43;;;;;;;14.40;8.07;;;;;;;;;;5033359;28;20206;-69
2022/05/08 00:34:08;;;;;;;14.53;9.63;;;;;;;;;;5026040;28;20193;-72
2022/05/08 00:36:33;;;;;;;13.27;8.23;;;;;;;;;;5021801;28;20198;-68
2022/05/08 00:38:59;;;;;;;12.03;7.77;;;;;;;;;;5029847;28;20269;-69
2022/05/08 00:41:24;;;;;;;10.87;8.10;;;;;;;;;;5027604;28;20357;-69
2022/05/08 00:43:49;;;;;;;12.77;7.77;;;;;;;;;;5040143;28;20174;-72
2022/05/08 00:46:16;;;;;;;17.87;8.10;;;;;;;;;;5043878;28;20184;-71
2022/05/08 00:48:42;;;;;;;15.80;7.40;;;;;;;;;;5027198;28;20187;-71
2022/05/08 00:51:08;;;;;;;13.57;7.80;;;;;;;;;;5031711;28;20280;-69
2022/05/08 00:53:35;;;;;;;13.73;7.87;;;;;;;;;;5039568;28;20187;-71
2022/05/08 00:56:01;;;;;;;13.27;8.43;;;;;;;;;;5031639;28;20216;-71
2022/05/08 00:58:26;;;;;;;13.00;7.77;;;;;;;;;;5029539;28;20194;-71
2022/05/08 01:00:52;;;;;;;12.37;8.23;;;;;;;;;;5031016;28;20209;-71
2022/05/08 01:03:17;;;;;;;13.33;8.27;;;;;;;;;;5031050;28;20754;-70
2022/05/08 01:05:42;;;;;;;15.00;8.13;;;;;;;;;;5031001;28;20640;-71
2022/05/08 01:08:09;;;;;;;12.00;7.07;;;;;;;;;;5026090;28;20182;-71
2022/05/08 01:10:35;;;;;;;11.23;6.87;;;;;;;;;;5029669;28;20198;-70
2022/05/08 01:13:01;;;;;;;16.63;6.43;;;;;;;;;;5034068;28;20670;-71
2022/05/08 01:15:28;;;;;;;13.23;5.13;;;;;;;;;;5030318;28;20570;-71
2022/05/08 01:17:53;;;;;;;10.20;4.50;;;;;;;;;;5032124;28;20196;-68
2022/05/08 01:20:18;;;;;;;12.63;4.23;;;;;;;;;;5029918;28;20289;-69
2022/05/08 01:22:43;;;;;;;11.87;3.80;;;;;;;;;;5027542;28;20185;-71
2022/05/08 01:25:08;;;;;;;11.33;4.13;;;;;;;;;;5034434;28;20734;-70
2022/05/08 01:27:34;;;;;;;12.60;4.53;;;;;;;;;;5030474;28;20185;-70
2022/05/08 01:29:59;;;;;;;13.57;4.40;;;;;;;;;;5031400;28;20726;-68
2022/05/08 01:32:24;;;;;;;11.17;3.67;;;;;;;;;;5030199;28;20277;-71
2022/05/08 01:34:49;;;;;;;14.23;4.23;;;;;;;;;;5032794;28;20174;-69
2022/05/08 01:37:14;;;;;;;17.57;4.80;;;;;;;;;;5034092;28;20209;-71
2022/05/08 01:39:40;;;;;;;16.03;4.93;;;;;;;;;;5031211;28;20211;-71
2022/05/08 01:42:06;;;;;;;17.80;5.83;;;;;;;;;;5029387;28;20202;-70
2022/05/08 01:44:31;;;;;;;16.33;4.30;;;;;;;;;;5035989;28;20177;-70
2022/05/08 01:49:41;;;;;;;13.20;3.80;;;;;;;;;;5027287;28;20244;-69
2022/05/08 01:52:06;;;;;;;20.17;6.07;;;;;;;;;;5027067;28;20537;-71
2022/05/08 01:54:32;;;;;;;15.50;3.93;;;;;;;;;;5030533;28;20186;-71
2022/05/08 01:56:57;;;;;;;19.83;4.30;;;;;;;;;;5030400;28;20232;-69
2022/05/08 01:59:22;;;;;;;14.10;4.40;;;;;;;;;;5018642;28;20187;-72
2022/05/08 02:01:48;;;;;;;20.50;4.60;;;;;;;;;;5030412;28;20222;-71
2022/05/08 02:04:15;;;;;;;12.90;4.10;;;;;;;;;;5026137;28;20190;-71
2022/05/08 02:06:43;;;;;;;17.53;5.33;;;;;;;;;;5036014;28;20177;-71
2022/05/08 02:09:09;;;;;;;19.97;6.33;;;;;;;;;;5020738;28;20264;-70
2022/05/08 02:11:34;;;;;;;17.80;5.43;;;;;;;;;;5028726;28;20284;-70
2022/05/08 02:14:00;;;;;;;18.07;4.90;;;;;;;;;;5029213;28;20241;-70
2022/05/08 02:16:25;;;;;;;16.03;3.90;;;;;;;;;;5021880;28;20182;-70
2022/05/08 02:18:50;;;;;;;16.70;4.40;;;;;;;;;;5028001;28;20182;-70
2022/05/08 02:21:15;;;;;;;18.07;4.20;;;;;;;;;;5027741;28;20283;-70
2022/05/08 02:23:41;;;;;;;19.03;4.23;;;;;;;;;;5022300;28;20243;-70
2022/05/08 02:26:06;;;;;;;19.40;5.20;;;;;;;;;;5023386;28;20182;-69
2022/05/08 02:28:31;;;;;;;17.43;4.80;;;;;;;;;;5016222;28;20171;-70
2022/05/08 02:30:56;;;;;;;16.43;4.17;;;;;;;;;;5021900;28;20214;-69
2022/05/08 02:33:22;;;;;;;16.23;4.20;;;;;;;;;;5025904;28;20186;-70
2022/05/08 02:35:47;;;;;;;17.40;5.10;;;;;;;;;;5033753;28;20226;-70
2022/05/08 02:38:12;;;;;;;19.03;4.13;;;;;;;;;;5032790;28;20174;-70
2022/05/08 02:40:37;;;;;;;19.03;4.70;;;;;;;;;;5032127;28;20214;-70
2022/05/08 02:43:03;;;;;;;16.60;4.50;;;;;;;;;;5027976;28;20672;-70
2022/05/08 02:45:28;;;;;;;17.93;4.30;;;;;;;;;;5032417;28;20174;-70
2022/05/08 02:47:53;;;;;;;13.87;3.80;;;;;;;;;;5028860;28;20261;-70
2022/05/08 02:50:20;;;;;;;16.63;4.53;;;;;;;;;;5020653;28;20190;-71
2022/05/08 02:52:45;;;;;;;13.93;4.07;;;;;;;;;;5029790;28;20432;-72
2022/05/08 03:00:40;;;;;;;15.10;3.87;;;;;;;;;;5032141;28;20209;-69
2022/05/08 03:03:06;;;;;;;13.20;4.70;;;;;;;;;;5029109;28;20178;-69
2022/05/08 03:05:31;;;;;;;10.77;3.67;;;;;;;;;;5025886;28;20167;-69
2022/05/08 03:07:56;;;;;;;18.57;4.60;;;;;;;;;;5022619;28;20209;-69
2022/05/08 03:10:22;;;;;;;13.70;3.80;;;;;;;;;;5029255;28;20178;-69
2022/05/08 03:12:47;;;;;;;17.60;5.40;;;;;;;;;;5033800;28;20639;-70
2022/05/08 03:15:12;;;;;;;12.17;4.07;;;;;;;;;;5033619;28;20179;-69
2022/05/08 03:17:37;;;;;;;12.63;4.33;;;;;;;;;;5034460;28;20194;-70
2022/05/08 03:20:02;;;;;;;15.43;5.23;;;;;;;;;;5032149;28;20206;-70
2022/05/08 03:22:27;;;;;;;13.67;3.87;;;;;;;;;;5031440;28;20291;-70
2022/05/08 03:24:53;;;;;;;12.20;3.60;;;;;;;;;;5036813;28;20566;-70
2022/05/08 03:27:19;;;;;;;12.73;3.90;;;;;;;;;;5033212;28;20174;-70
2022/05/08 03:29:44;;;;;;;17.10;4.30;;;;;;;;;;5030122;28;20672;-70
2022/05/08 03:32:10;;;;;;;17.77;4.10;;;;;;;;;;5034423;28;20201;-70
2022/05/08 03:34:35;;;;;;;15.30;4.67;;;;;;;;;;5032999;28;20174;-69
2022/05/08 03:37:00;;;;;;;25.13;4.60;;;;;;;;;;5032764;28;20608;-70
2022/05/08 03:39:25;;;;;;;12.53;3.43;;;;;;;;;;5030641;28;20190;-70
2022/05/08 03:41:51;;;;;;;20.00;4.07;;;;;;;;;;5029138;28;20224;-69
2022/05/08 03:44:16;;;;;;;15.80;4.77;;;;;;;;;;5032949;28;20182;-70
2022/05/08 03:46:41;;;;;;;14.27;4.37;;;;;;;;;;5036108;28;20170;-69
2022/05/08 03:49:06;;;;;;;15.03;3.90;;;;;;;;;;5035212;28;20198;-72
2022/05/08 03:51:31;;;;;;;21.57;5.33;;;;;;;;;;5036657;28;20205;-69
2022/05/08 03:53:57;;;;;;;18.07;4.30;;;;;;;;;;5039227;28;20265;-70
2022/05/08 03:56:22;;;;;;;23.10;6.03;;;;;;;;;;5036290;28;20194;-70
2022/05/08 03:58:47;;;;;;;14.80;3.87;;;;;;;;;;5033517;28;20217;-70
2022/05/08 04:01:12;;;;;;;15.63;4.50;;;;;;;;;;5025036;28;20210;-70
2022/05/08 04:03:38;;;;;;;16.50;4.90;;;;;;;;;;5031204;28;20181;-70
2022/05/08 04:06:06;;;;;;;16.80;4.07;;;;;;;;;;5032973;28;20174;-70
2022/05/08 04:08:32;;;;;;;19.33;4.87;;;;;;;;;;5032648;28;20732;-70
2022/05/08 04:10:58;;;;;;;18.90;5.07;;;;;;;;;;5034501;28;20202;-70
2022/05/08 04:13:23;;;;;;;20.83;5.17;;;;;;;;;;5022983;28;20324;-70
2022/05/08 04:18:32;;;;;;;23.73;6.73;;;;;;;;;;5032425;28;20280;-70
2022/05/08 04:20:57;;;;;;;16.13;4.97;;;;;;;;;;5029350;28;20730;-70
2022/05/08 04:26:06;;;;;;;20.13;5.13;;;;;;;;;;5035315;28;20182;-70
2022/05/08 04:28:31;;;;;;;20.33;5.43;;;;;;;;;;5031632;28;20186;-68
2022/05/08 04:30:57;;;;;;;17.73;4.67;;;;;;;;;;5032517;28;20213;-71
2022/05/08 04:33:22;;;;;;;18.20;4.23;;;;;;;;;;5029621;28;20276;-71
2022/05/08 04:35:47;;;;;;;19.53;4.90;;;;;;;;;;5032093;28;20194;-71
2022/05/08 04:38:12;;;;;;;18.00;5.43;;;;;;;;;;5031640;28;20182;-70
2022/05/08 04:40:38;;;;;;;20.10;5.67;;;;;;;;;;5032845;28;20225;-71
2022/05/08 04:43:04;;;;;;;19.90;4.83;;;;;;;;;;5033422;28;20224;-71
2022/05/08 04:45:29;;;;;;;21.50;4.60;;;;;;;;;;5032057;28;20604;-71
2022/05/08 04:47:54;;;;;;;11.03;4.23;;;;;;;;;;5026469;28;20183;-71
2022/05/08 04:50:19;;;;;;;15.90;4.77;;;;;;;;;;5031990;28;20187;-71
2022/05/08 04:52:44;;;;;;;15.33;4.53;;;;;;;;;;5032261;28;20262;-71
2022/05/08 04:55:09;;;;;;;13.40;5.03;;;;;;;;;;5032779;28;20197;-69
2022/05/08 04:57:35;;;;;;;19.07;4.83;;;;;;;;;;5032313;28;20189;-71
2022/05/08 05:00:00;;;;;;;14.40;3.60;;;;;;;;;;5033703;28;20210;-71
2022/05/08 05:02:26;;;;;;;16.93;4.43;;;;;;;;;;5023816;28;20220;-70
2022/05/08 05:04:51;;;;;;;15.77;5.00;;;;;;;;;;5035007;28;20182;-71
2022/05/08 05:07:16;;;;;;;15.77;4.57;;;;;;;;;;5025507;28;20262;-71
2022/05/08 05:09:41;;;;;;;22.37;6.13;;;;;;;;;;5026780;28;20189;-71
2022/05/08 05:12:07;;;;;;;15.13;5.07;;;;;;;;;;5027775;28;20206;-70
2022/05/08 05:14:32;;;;;;;13.67;4.77;;;;;;;;;;5023233;28;20181;-70
2022/05/08 05:16:58;;;;;;;17.23;4.50;;;;;;;;;;5027601;28;20217;-71
2022/05/08 05:19:23;;;;;;;14.93;4.83;;;;;;;;;;5033021;28;20174;-71
2022/05/08 05:21:48;;;;;;;17.07;4.13;;;;;;;;;;5030216;28;20193;-71
2022/05/08 05:24:14;;;;;;;21.53;4.40;;;;;;;;;;5035668;28;20196;-69
2022/05/08 05:26:39;;;;;;;13.20;4.30;;;;;;;;;;5032192;28;20249;-71
2022/05/08 05:29:04;;;;;;;21.83;6.23;;;;;;;;;;5025233;28;20170;-70
2022/05/08 05:31:29;;;;;;;15.90;4.23;;;;;;;;;;5036697;28;20214;-71
2022/05/08 05:33:55;;;;;;;17.20;5.10;;;;;;;;;;5028179;28;20201;-70
2022/05/08 05:36:20;;;;;;;15.10;4.83;;;;;;;;;;5027276;28;20209;-70
2022/05/08 05:38:45;;;;;;;17.80;4.50;;;;;;;;;;5028002;28;20664;-70
2022/05/08 05:41:10;;;;;;;10.80;3.53;;;;;;;;;;5034632;28;20219;-69
2022/05/08 05:43:35;;;;;;;13.70;5.00;;;;;;;;;;5022630;28;20594;-70
2022/05/08 05:48:44;;;;;;;14.87;4.47;;;;;;;;;;5034670;28;20720;-71
2022/05/08 05:51:10;;;;;;;13.03;3.93;;;;;;;;;;5029592;28;20284;-71
2022/05/08 05:53:35;;;;;;;16.03;3.77;;;;;;;;;;5036466;28;20192;-72
2022/05/08 05:56:00;;;;;;;17.73;4.27;;;;;;;;;;5029505;28;20186;-71
2022/05/08 05:58:26;;;;;;;16.17;4.20;;;;;;;;;;5025652;28;20204;-69
2022/05/08 06:00:51;;;;;;;14.73;4.13;;;;;;;;;;5036536;28;20699;-71
2022/05/08 06:03:16;;;;;;;18.57;4.90;;;;;;;;;;5029238;28;20542;-70
2022/05/08 06:05:41;;;;;;;17.93;4.23;;;;;;;;;;5025107;28;20183;-70
2022/05/08 06:08:07;;;;;;;12.77;3.50;;;;;;;;;;5025512;28;20189;-71
2022/05/08 06:10:32;;;;;;;14.30;4.17;;;;;;;;;;5027680;28;20317;-71
2022/05/08 06:12:57;;;;;;;17.10;4.40;;;;;;;;;;5028445;28;20170;-71
2022/05/08 06:15:23;;;;;;;16.13;5.53;;;;;;;;;;5032575;28;20666;-71
2022/05/08 06:17:48;;;;;;;18.40;3.87;;;;;;;;;;5029301;28;20621;-70
2022/05/08 06:20:13;;;;;;;12.50;4.40;;;;;;;;;;5033681;28;20617;-69
2022/05/08 06:22:38;;;;;;;14.90;3.63;;;;;;;;;;5030634;28;20197;-72
2022/05/08 06:25:04;;;;;;;11.73;3.60;;;;;;;;;;5029266;28;20209;-71
2022/05/08 06:27:29;;;;;;;19.47;4.40;;;;;;;;;;5029163;28;20175;-69
2022/05/08 06:29:55;;;;;;;11.00;4.13;;;;;;;;;;5024063;28;21291;-71
2022/05/08 06:32:21;;;;;;;16.13;4.13;;;;;;;;;;5031433;28;20256;-71
2022/05/08 06:34:47;;;;;;;11.27;4.30;;;;;;;;;;5031284;28;20260;-69
2022/05/08 06:37:12;;;;;;;16.63;3.80;;;;;;;;;;5033406;28;20190;-69
2022/05/08 06:39:38;;;;;;;9.97;3.53;;;;;;;;;;5026556;28;20182;-69
2022/05/08 06:42:04;;;;;;;14.87;3.33;;;;;;;;;;5034891;28;20204;-68
2022/05/08 06:44:29;;;;;;;15.77;3.00;;;;;;;;;;5037066;28;20178;-69
2022/05/08 06:46:54;;;;;;;14.70;3.87;;;;;;;;;;5040318;28;20223;-72
2022/05/08 06:49:19;;;;;;;12.57;4.17;;;;;;;;;;5036123;28;20188;-69
2022/05/08 06:51:46;;;;;;;17.93;3.80;;;;;;;;;;5033350;28;20275;-69
2022/05/08 06:54:11;;;;;;;12.47;2.90;;;;;;;;;;5041233;28;20182;-69
2022/05/08 06:56:36;;;;;;;12.45;3.78;;;;;;;;;;5041855;28;20248;-69
2022/05/08 07:01:46;;;;;;;10.55;3.58;;;;;;;;;;5015242;28;20257;-69
2022/05/08 07:04:11;;;;;;;11.73;3.50;;;;;;;;;;5030223;28;20191;-70
2022/05/08 07:06:37;;;;;;;17.88;4.72;;;;;;;;;;5036690;28;20231;-72
2022/05/08 07:09:03;;;;;;;11.68;3.78;;;;;;;;;;5029721;28;20277;-69
2022/05/08 07:11:30;;;;;;;11.18;3.33;;;;;;;;;;5040248;28;20706;-70
2022/05/08 07:13:55;;;;;;;13.70;4.13;;;;;;;;;;5030064;28;20391;-69
2022/05/08 07:16:20;;;;;;;14.67;3.30;;;;;;;;;;5040737;28;20216;-70
2022/05/08 07:18:46;;;;;;;11.27;3.33;;;;;;;;;;5030956;28;20426;-69
2022/05/08 07:21:11;;;;;;;11.90;3.75;;;;;;;;;;5030389;28;20214;-70
2022/05/08 07:23:36;;;;;;;11.52;3.92;;;;;;;;;;5032188;28;20177;-70
2022/05/08 07:26:02;;;;;;;14.47;3.77;;;;;;;;;;5030964;28;20567;-69
2022/05/08 07:28:28;;;;;;;11.18;3.30;;;;;;;;;;5035727;28;20431;-69
2022/05/08 07:30:53;;;;;;;6.18;3.00;;;;;;;;;;5026989;28;20190;-70
2022/05/08 07:33:19;;;;;;;9.98;3.25;;;;;;;;;;5031226;28;20528;-70
2022/05/08 07:38:29;;;;;;;10.43;3.00;;;;;;;;;;5008719;28;20278;-69
2022/05/08 07:40:54;;;;;;;7.22;2.78;;;;;;;;;;5030684;28;20759;-70
2022/05/08 07:43:19;;;;;;;10.65;2.88;;;;;;;;;;5028127;28;20184;-69
2022/05/08 07:45:45;;;;;;;9.07;3.00;;;;;;;;;;5025727;28;20179;-70
2022/05/08 07:48:10;;;;;;;10.02;3.13;;;;;;;;;;5027309;28;20538;-70
2022/05/08 07:50:36;;;;;;;8.13;3.15;;;;;;;;;;5031895;28;20201;-70
2022/05/08 07:53:01;;;;;;;12.70;3.30;;;;;;;;;;5036897;28;20190;-70
2022/05/08 07:55:26;;;;;;;11.93;3.53;;;;;;;;;;5029638;28;20186;-70
2022/05/08 07:57:51;;;;;;;7.17;2.80;;;;;;;;;;5020482;28;20185;-70
2022/05/08 08:00:17;;;;;;;10.53;2.77;;;;;;;;;;5030935;28;20506;-70
2022/05/08 08:02:42;;;;;;;10.10;3.40;;;;;;;;;;5030864;28;20411;-70
2022/05/08 08:05:07;;;;;;;8.57;3.50;;;;;;;;;;5030802;28;20204;-69
2022/05/08 08:07:32;;;;;;;9.85;3.20;;;;;;;;;;5028897;28;20424;-70
2022/05/08 08:09:58;;;;;;;12.17;2.97;;;;;;;;;;5031559;28;20217;-69
2022/05/08 08:12:24;;;;;;;11.48;3.17;;;;;;;;;;5032927;28;20431;-70
2022/05/08 08:14:49;;;;;;;7.97;2.67;;;;;;;;;;5022833;28;20277;-69
2022/05/08 08:17:14;;;;;;;7.88;3.15;;;;;;;;;;5032878;28;20501;-69
2022/05/08 08:19:39;;;;;;;7.47;2.40;;;;;;;;;;5032489;28;20261;-69
2022/05/08 08:22:05;;;;;;;8.82;2.97;;;;;;;;;;5032995;28;20472;-69
2022/05/08 08:24:30;;;;;;;9.70;2.55;;;;;;;;;;5030910;28;20174;-69
2022/05/08 08:26:55;;;;;;;10.63;2.97;;;;;;;;;;5031407;28;20178;-69
2022/05/08 08:29:20;;;;;;;8.18;3.08;;;;;;;;;;5035674;28;20182;-69
2022/05/08 08:31:45;;;;;;;10.67;2.47;;;;;;;;;;5025391;28;20302;-69
2022/05/08 08:34:11;;;;;;;10.83;2.60;;;;;;;;;;5023971;28;20505;-69
2022/05/08 08:36:36;;;;;;;10.20;2.70;;;;;;;;;;5025782;28;20526;-69
2022/05/08 08:39:01;;;;;;;9.60;3.07;;;;;;;;;;5024472;28;20431;-69
2022/05/08 08:41:31;;;;;;;8.90;2.45;;;;;;;;;;5025278;28;20463;-68
2022/05/08 08:49:28;;;;;;;11.32;2.70;;;;;;;;;;5029502;28;20235;-68
2022/05/08 08:51:54;;;;;;;5.28;2.40;;;;;;;;;;5026081;28;20202;-68
2022/05/08 08:54:20;;;;;;;6.07;2.45;;;;;;;;;;5027652;28;20249;-70
2022/05/08 08:56:45;;;;;;;10.00;2.90;;;;;;;;;;5026442;28;20266;-68
2022/05/08 08:59:11;;;;;;;6.07;1.98;;;;;;;;;;5030806;28;20196;-69
2022/05/08 09:01:43;;;;;;;7.95;2.10;;;;;;;;;;5028182;28;20218;-68
2022/05/08 09:04:09;;;;;;;7.82;3.00;;;;;;;;;;5031677;28;20213;-69
2022/05/08 09:06:38;;;;;;;4.43;2.22;;;;;;;;;;5023497;28;20621;-68
2022/05/08 09:09:20;;;;;;;10.80;3.05;;;;;;;;;;5026201;28;20194;-69
2022/05/08 09:11:45;;;;;;;7.95;2.63;;;;;;;;;;5031205;28;20618;-68
2022/05/08 09:14:10;;;;;;;9.83;2.83;;;;;;;;;;5031756;28;20190;-68
2022/05/08 09:16:54;;;;;;;7.97;3.07;;;;;;;;;;5027668;28;20458;-68
2022/05/08 09:19:34;;;;;;;8.60;3.75;;;;;;;;;;5034087;28;20565;-69
2022/05/08 09:22:01;;;;;;;9.45;2.75;;;;;;;;;;5027399;28;20208;-68
2022/05/08 09:24:26;;;;;;;10.32;2.80;;;;;;;;;;5030318;28;20206;-68
2022/05/08 09:27:07;;;;;;;10.23;2.90;;;;;;;;;;5024433;28;20216;-69
2022/05/08 09:29:32;;;;;;;15.35;3.20;;;;;;;;;;5026374;28;20256;-68
2022/05/08 09:31:58;;;;;;;8.87;2.60;;;;;;;;;;5031280;28;20284;-68
2022/05/08 09:34:23;;;;;;;6.53;2.03;;;;;;;;;;5029929;28;20446;-68
2022/05/08 09:37:03;;;;;;;7.53;2.57;;;;;;;;;;5023970;28;20593;-68
2022/05/08 09:39:29;;;;;;;7.15;2.20;;;;;;;;;;5027010;28;20488;-69
2022/05/08 09:41:54;;;;;;;4.18;2.35;;;;;;;;;;5033470;28;20567;-69
2022/05/08 09:44:20;;;;;;;3.70;2.08;;;;;;;;;;5012873;28;20759;-69
2022/05/08 09:46:46;;;;;;;6.63;2.13;;;;;;;;;;5025775;28;20262;-69
2022/05/08 09:49:12;;;;;;;5.22;1.80;;;;;;;;;;5027787;28;20576;-69
2022/05/08 09:51:38;;;;;;;5.25;2.10;;;;;;;;;;5031710;28;20198;-69
2022/05/08 09:54:04;;;;;;;7.05;2.33;;;;;;;;;;5028524;28;20190;-69
2022/05/08 09:56:30;;;;;;;9.13;1.95;;;;;;;;;;5029896;28;20177;-69
2022/05/08 09:58:56;;;;;;;5.20;1.88;;;;;;;;;;5027715;28;20261;-69
2022/05/08 10:01:23;;;;;;;7.43;2.70;;;;;;;;;;5034788;28;20773;-69
2022/05/08 10:03:49;;;;;;;5.13;2.17;;;;;;;;;;5021687;28;20466;-69
2022/05/08 10:06:15;;;;;;;8.23;1.90;;;;;;;;;;5028775;28;20198;-69
2022/05/08 10:08:41;;;;;;;9.13;2.20;;;;;;;;;;5026870;28;20253;-69
2022/05/08 10:13:56;;;;;;;4.43;1.95;;;;;;;;;;5026757;28;20606;-69
2022/05/08 10:16:40;;;;;;;8.25;2.17;;;;;;;;;;5034274;28;20182;-69
2022/05/08 10:19:18;;;;;;;5.32;2.05;;;;;;;;;;5020705;28;20580;-69
2022/05/08 10:21:52;;;;;;;9.95;2.05;;;;;;;;;;5024673;28;20264;-69
2022/05/08 10:24:31;;;;;;;6.05;1.90;;;;;;;;;;5025482;28;20208;-69
2022/05/08 10:27:11;;;;;;;9.65;2.30;;;;;;;;;;5032913;28;20811;-69
2022/05/08 10:29:39;;;;;;;8.38;2.20;;;;;;;;;;5028737;28;20197;-69
2022/05/08 10:32:06;;;;;;;10.93;2.00;;;;;;;;;;5027369;28;20202;-73
2022/05/08 10:34:35;;;;;;;3.58;1.58;;;;;;;;;;5027706;28;20213;-72
2022/05/08 10:37:12;;;;;;;7.25;2.72;;;;;;;;;;5028280;28;20666;-73
2022/05/08 10:39:45;;;;;;;6.82;2.40;;;;;;;;;;5028621;28;20217;-72
2022/05/08 10:42:29;;;;;;;8.95;2.05;;;;;;;;;;5031104;28;20203;-73
2022/05/08 10:44:55;;;;;;;12.50;2.30;;;;;;;;;;5025658;28;20876;-72
2022/05/08 10:47:42;;;;;;;7.82;2.10;;;;;;;;;;4999399;28;20201;-73
2022/05/08 10:50:12;;;;;;;5.45;1.80;;;;;;;;;;5025218;28;20182;-73
2022/05/08 10:52:39;;;;;;;4.47;1.50;;;;;;;;;;5024070;28;20174;-73
2022/05/08 10:55:07;;;;;;;7.78;2.55;;;;;;;;;;5029235;28;20181;-72
2022/05/08 10:57:36;;;;;;;5.78;2.45;;;;;;;;;;5025973;28;20706;-72
2022/05/08 11:00:12;;;;;;;5.13;1.90;;;;;;;;;;5027975;28;20205;-73
2022/05/08 11:02:45;;;;;;;5.45;2.00;;;;;;;;;;5027168;28;20234;-73
2022/05/08 11:05:11;;;;;;;6.60;2.40;;;;;;;;;;5028279;28;20254;-73
2022/05/08 11:07:37;;;;;;;6.28;1.95;;;;;;;;;;5028775;28;20545;-72
2022/05/08 11:10:12;;;;;;;8.82;2.28;;;;;;;;;;5025222;28;20789;-71
2022/05/08 11:12:53;;;;;;;6.70;2.08;;;;;;;;;;5033020;28;20263;-71
2022/05/08 11:15:18;;;;;;;5.03;1.73;;;;;;;;;;5029911;28;20178;-71
2022/05/08 11:17:43;;;;;;;6.60;1.93;;;;;;;;;;5025273;28;20181;-70
2022/05/08 11:20:09;;;;;;;4.67;2.23;;;;;;;;;;5024763;28;20202;-72
2022/05/08 11:22:36;;;;;;;5.72;1.45;;;;;;;;;;5027591;28;20572;-73
2022/05/08 11:25:13;;;;;;;6.45;1.75;;;;;;;;;;5025124;28;20171;-72
2022/05/08 11:27:38;;;;;;;3.58;1.83;;;;;;;;;;5023722;28;20291;-73
2022/05/08 11:30:05;;;;;;;4.67;1.70;;;;;;;;;;5026328;28;20228;-72
2022/05/08 11:38:13;;;;;;;7.10;1.88;;;;;;;;;;5022803;28;20181;-71
2022/05/08 11:40:40;;;;;;;4.37;1.87;;;;;;;;;;5031295;28;20230;-75
2022/05/08 11:43:05;;;;;;;4.90;1.50;;;;;;;;;;5028831;28;20823;-68
2022/05/08 11:45:30;;;;;;;4.53;1.55;;;;;;;;;;5022775;28;20178;-69
2022/05/08 11:47:55;;;;;;;7.32;1.55;;;;;;;;;;5028640;28;20174;-69
2022/05/08 11:50:21;;;;;;;5.32;1.60;;;;;;;;;;5033279;28;20644;-68
2022/05/08 11:52:46;;;;;;;6.30;1.47;;;;;;;;;;5031024;28;20760;-68
2022/05/08 11:55:11;;;;;;;5.50;1.60;;;;;;;;;;5031803;28;20182;-69
2022/05/08 11:57:41;;;;;;;6.47;1.90;;;;;;;;;;5029505;28;20929;-68
2022/05/08 12:00:10;;;;;;;4.43;1.95;;;;;;;;;;5029119;28;20206;-69
2022/05/08 12:02:38;;;;;;;7.30;2.13;;;;;;;;;;5030239;28;20195;-68
2022/05/08 12:05:04;;;;;;;3.85;1.17;;;;;;;;;;5032340;28;20258;-69
2022/05/08 12:07:48;;;;;;;3.38;1.42;;;;;;;;;;5030930;28;20199;-68
2022/05/08 12:10:13;;;;;;;4.35;1.50;;;;;;;;;;5027990;28;20182;-68
2022/05/08 12:12:39;;;;;;;4.40;1.50;;;;;;;;;;5029400;28;20185;-69
2022/05/08 12:15:07;;;;;;;3.70;1.65;;;;;;;;;;5030470;28;20185;-69
2022/05/08 12:17:44;;;;;;;4.15;1.80;;;;;;;;;;5028290;28;20304;-69
2022/05/08 12:20:12;;;;;;;7.25;1.83;;;;;;;;;;5029820;28;20198;-69
2022/05/08 12:22:38;;;;;;;5.32;1.42;;;;;;;;;;5032910;28;20167;-68
2022/05/08 12:25:03;;;;;;;4.35;1.50;;;;;;;;;;5030951;28;20182;-68
2022/05/08 12:27:29;;;;;;;3.22;1.40;;;;;;;;;;5026435;28;20205;-68
2022/05/08 12:29:54;;;;;;;5.57;1.83;;;;;;;;;;5036479;28;20186;-68
2022/05/08 12:32:20;;;;;;;4.35;1.77;;;;;;;;;;5029496;28;20238;-69
2022/05/08 12:34:46;;;;;;;5.28;1.65;;;;;;;;;;5034727;28;20644;-69
2022/05/08 12:37:12;;;;;;;5.93;1.77;;;;;;;;;;5029548;28;20240;-68
2022/05/08 12:39:37;;;;;;;4.72;1.70;;;;;;;;;;5028845;28;20746;-69
2022/05/08 12:42:03;;;;;;;4.60;1.65;;;;;;;;;;5030888;28;20281;-69
2022/05/08 12:44:28;;;;;;;5.00;1.77;;;;;;;;;;5030211;28;20205;-69
2022/05/08 12:46:53;;;;;;;4.27;1.60;;;;;;;;;;5027318;28;20174;-69
2022/05/08 12:49:19;;;;;;;3.50;1.33;;;;;;;;;;5031717;28;20411;-69
2022/05/08 12:51:45;;;;;;;3.08;1.60;;;;;;;;;;5030715;28;20209;-68
2022/05/08 12:54:10;;;;;;;4.45;1.67;;;;;;;;;;5032486;28;20244;-69
2022/05/08 12:56:35;;;;;;;4.75;1.40;;;;;;;;;;5030158;28;20215;-68
2022/05/08 13:01:45;;;;;;;6.43;1.65;;;;;;;;;;5030256;28;20524;-69
2022/05/08 13:04:11;;;;;;;6.28;1.67;;;;;;;;;;5028159;28;20364;-69
2022/05/08 13:06:36;;;;;;;6.28;1.48;;;;;;;;;;5031966;28;20570;-69
2022/05/08 13:09:02;;;;;;;5.18;1.38;;;;;;;;;;5023780;28;20197;-69
2022/05/08 13:11:27;;;;;;;4.88;1.50;;;;;;;;;;5024701;28;20211;-69
2022/05/08 13:13:53;;;;;;;4.60;1.58;;;;;;;;;;5030860;28;20178;-69
2022/05/08 13:16:18;;;;;;;5.07;1.42;;;;;;;;;;5024688;28;20569;-69
2022/05/08 13:18:43;;;;;;;5.50;1.80;;;;;;;;;;5028932;28;20197;-69
2022/05/08 13:21:08;;;;;;;5.82;1.75;;;;;;;;;;5024042;28;21002;-68
2022/05/08 13:23:34;;;;;;;5.45;1.33;;;;;;;;;;5032421;28;20556;-69
2022/05/08 13:25:59;;;;;;;6.23;1.67;;;;;;;;;;5024574;28;20563;-69
2022/05/08 13:28:24;;;;;;;5.82;1.60;;;;;;;;;;5026954;28;20427;-69
2022/05/08 13:30:49;;;;;;;5.90;1.70;;;;;;;;;;5032168;28;20202;-69
2022/05/08 13:33:14;;;;;;;4.23;1.87;;;;;;;;;;5024587;28;20186;-69
2022/05/08 13:35:40;;;;;;;5.10;1.57;;;;;;;;;;5027173;28;20471;-68
2022/05/08 13:38:05;;;;;;;5.07;1.52;;;;;;;;;;5028584;28;20814;-69
2022/05/08 13:40:30;;;;;;;4.03;1.30;;;;;;;;;;5032288;28;20193;-69
2022/05/08 13:42:56;;;;;;;3.35;1.70;;;;;;;;;;5022518;28;20240;-68
2022/05/08 13:45:22;;;;;;;4.43;1.98;;;;;;;;;;5028437;28;20612;-68
2022/05/08 13:47:47;;;;;;;6.88;1.60;;;;;;;;;;5026779;28;20182;-68
2022/05/08 13:50:12;;;;;;;8.60;1.70;;;;;;;;;;5025711;28;20190;-69
2022/05/08 13:52:37;;;;;;;3.80;1.38;;;;;;;;;;5021829;28;20316;-68
2022/05/08 13:55:03;;;;;;;5.38;1.42;;;;;;;;;;5028159;28;20190;-68
2022/05/08 13:57:31;;;;;;;3.92;1.73;;;;;;;;;;5025796;28;20281;-68
2022/05/08 13:59:56;;;;;;;4.90;1.70;;;;;;;;;;5031048;28;20601;-68
2022/05/08 14:02:22;;;;;;;9.18;1.65;;;;;;;;;;5029892;28;20232;-68
2022/05/08 14:04:47;;;;;;;5.78;1.88;;;;;;;;;;5029252;28;20205;-69
2022/05/08 14:07:12;;;;;;;5.72;1.60;;;;;;;;;;5027636;28;20221;-69
2022/05/08 14:09:38;;;;;;;7.17;2.10;;;;;;;;;;5023799;28;20190;-68
2022/05/08 14:12:04;;;;;;;5.57;1.52;;;;;;;;;;5025763;28;20474;-69
2022/05/08 14:14:29;;;;;;;2.83;1.33;;;;;;;;;;5029057;28;20726;-69
2022/05/08 14:16:55;;;;;;;4.33;1.70;;;;;;;;;;5029803;28;20187;-69
2022/05/08 14:19:20;;;;;;;4.78;1.65;;;;;;;;;;5029713;28;20481;-69
2022/05/08 14:21:46;;;;;;;6.57;1.77;;;;;;;;;;5029402;28;20256;-69
2022/05/08 14:24:11;;;;;;;4.40;1.40;;;;;;;;;;5029566;28;20549;-69
2022/05/08 14:26:36;;;;;;;6.03;1.50;;;;;;;;;;5019255;28;20278;-69
2022/05/08 14:29:01;;;;;;;6.75;2.00;;;;;;;;;;5028312;28;20917;-69
2022/05/08 14:36:54;;;;;;;4.28;2.05;;;;;;;;;;5031318;28;20686;-69
2022/05/08 14:39:19;;;;;;;10.20;2.17;;;;;;;;;;5028653;28;20260;-69
2022/05/08 14:41:45;;;;;;;5.13;1.87;;;;;;;;;;5024611;28;20466;-67
2022/05/08 14:44:10;;;;;;;5.10;1.67;;;;;;;;;;5026181;28;20459;-67
2022/05/08 14:46:35;;;;;;;4.50;1.40;;;;;;;;;;5035655;28;20265;-68
2022/05/08 14:49:00;;;;;;;7.10;1.80;;;;;;;;;;5026708;28;20190;-68
2022/05/08 14:51:27;;;;;;;5.85;1.95;;;;;;;;;;5021809;28;20447;-69
2022/05/08 14:53:52;;;;;;;4.10;1.70;;;;;;;;;;5029103;28;20183;-68
2022/05/08 14:56:17;;;;;;;7.40;1.80;;;;;;;;;;5030467;28;20178;-69
2022/05/08 14:58:44;;;;;;;4.17;1.37;;;;;;;;;;5023398;28;20262;-68
2022/05/08 15:01:12;;;;;;;5.00;1.60;;;;;;;;;;5024057;28;20464;-69
2022/05/08 15:03:37;;;;;;;5.78;1.88;;;;;;;;;;5031294;28;20183;-68
2022/05/08 15:06:02;;;;;;;7.03;1.80;;;;;;;;;;5033196;28;20224;-68
2022/05/08 15:08:27;;;;;;;4.45;1.70;;;;;;;;;;5030492;28;20426;-68
2022/05/08 15:10:52;;;;;;;6.07;1.70;;;;;;;;;;5027662;28;20190;-68
2022/05/08 15:13:19;;;;;;;5.40;1.80;;;;;;;;;;5030573;28;20442;-68